sensor_id;sensor_type;location;lat;lon;timestamp;P1;durP1;ratioP1;P2;durP2;ratioP2
27163;SDS011;14685;50.618;7.024;2022-10-30T00:00:40;19.15;;;6.85;;
27163;SDS011;14685;50.618;7.024;2022-10-30T00:03:12;11.68;;;6.10;;
27163;SDS011;14685;50.618;7.024;2022-10-30T00:05:40;14.63;;;6.72;;
27163;SDS011;14685;50.618;7.024;2022-10-30T00:08:11;16.73;;;6.80;;
27163;SDS011;14685;50.618;7.024;2022-10-30T00:10:38;20.52;;;6.25;;
27163;SDS011;14685;50.618;7.024;2022-10-30T00:13:06;12.57;;;6.88;;
27163;SDS011;14685;50.618;7.024;2022-10-30T00:15:33;14.00;;;6.50;;
27163;SDS011;14685;50.618;7.024;2022-10-30T00:18:02;12.25;;;6.07;;
27163;SDS011;14685;50.618;7.024;2022-10-30T00:20:30;14.95;;;6.68;;
27163;SDS011;14685;50.618;7.024;2022-10-30T00:22:57;13.18;;;6.72;;
27163;SDS011;14685;50.618;7.024;2022-10-30T00:25:24;14.43;;;7.32;;
27163;SDS011;14685;50.618;7.024;2022-10-30T00:27:51;16.77;;;6.72;;
27163;SDS011;14685;50.618;7.024;2022-10-30T00:30:18;13.45;;;6.93;;
27163;SDS011;14685;50.618;7.024;2022-10-30T00:32:48;11.05;;;6.10;;
27163;SDS011;14685;50.618;7.024;2022-10-30T00:35:14;17.85;;;7.28;;
27163;SDS011;14685;50.618;7.024;2022-10-30T00:37:44;18.70;;;7.00;;
27163;SDS011;14685;50.618;7.024;2022-10-30T00:40:15;15.10;;;6.55;;
27163;SDS011;14685;50.618;7.024;2022-10-30T00:42:42;13.15;;;6.40;;
27163;SDS011;14685;50.618;7.024;2022-10-30T00:45:14;13.07;;;5.80;;
27163;SDS011;14685;50.618;7.024;2022-10-30T00:47:43;15.73;;;6.53;;
27163;SDS011;14685;50.618;7.024;2022-10-30T00:50:16;14.55;;;6.63;;
27163;SDS011;14685;50.618;7.024;2022-10-30T00:52:49;10.85;;;6.22;;
27163;SDS011;14685;50.618;7.024;2022-10-30T00:55:29;18.38;;;6.40;;
27163;SDS011;14685;50.618;7.024;2022-10-30T00:58:00;15.85;;;7.15;;
27163;SDS011;14685;50.618;7.024;2022-10-30T01:00:37;13.82;;;6.07;;
27163;SDS011;14685;50.618;7.024;2022-10-30T01:03:08;17.05;;;6.18;;
27163;SDS011;14685;50.618;7.024;2022-10-30T01:05:36;12.88;;;6.38;;
27163;SDS011;14685;50.618;7.024;2022-10-30T01:08:03;13.60;;;6.07;;
27163;SDS011;14685;50.618;7.024;2022-10-30T01:10:30;18.95;;;7.10;;
27163;SDS011;14685;50.618;7.024;2022-10-30T01:12:57;12.05;;;6.03;;
27163;SDS011;14685;50.618;7.024;2022-10-30T01:15:27;10.35;;;5.57;;
27163;SDS011;14685;50.618;7.024;2022-10-30T01:21:14;20.75;;;6.65;;
27163;SDS011;14685;50.618;7.024;2022-10-30T01:24:13;17.20;;;6.40;;
27163;SDS011;14685;50.618;7.024;2022-10-30T01:26:53;14.35;;;6.30;;
27163;SDS011;14685;50.618;7.024;2022-10-30T01:29:35;14.10;;;6.15;;
27163;SDS011;14685;50.618;7.024;2022-10-30T01:37:44;16.88;;;6.43;;
27163;SDS011;14685;50.618;7.024;2022-10-30T01:40:14;11.00;;;5.55;;
27163;SDS011;14685;50.618;7.024;2022-10-30T01:42:52;11.25;;;5.75;;
27163;SDS011;14685;50.618;7.024;2022-10-30T01:45:26;13.63;;;5.90;;
27163;SDS011;14685;50.618;7.024;2022-10-30T01:56:27;16.83;;;6.57;;
27163;SDS011;14685;50.618;7.024;2022-10-30T01:58:59;21.65;;;6.70;;
27163;SDS011;14685;50.618;7.024;2022-10-30T02:01:32;9.68;;;6.05;;
27163;SDS011;14685;50.618;7.024;2022-10-30T02:04:02;15.60;;;6.95;;
27163;SDS011;14685;50.618;7.024;2022-10-30T02:06:29;17.85;;;6.82;;
27163;SDS011;14685;50.618;7.024;2022-10-30T02:08:56;11.77;;;6.28;;
27163;SDS011;14685;50.618;7.024;2022-10-30T02:11:24;12.23;;;6.40;;
27163;SDS011;14685;50.618;7.024;2022-10-30T02:13:54;14.98;;;6.22;;
27163;SDS011;14685;50.618;7.024;2022-10-30T02:16:22;15.82;;;6.07;;
27163;SDS011;14685;50.618;7.024;2022-10-30T02:18:50;14.88;;;6.22;;
27163;SDS011;14685;50.618;7.024;2022-10-30T02:21:17;14.90;;;6.00;;
27163;SDS011;14685;50.618;7.024;2022-10-30T02:23:44;17.83;;;5.68;;
27163;SDS011;14685;50.618;7.024;2022-10-30T02:26:10;19.08;;;5.88;;
27163;SDS011;14685;50.618;7.024;2022-10-30T02:28:37;14.77;;;5.90;;
27163;SDS011;14685;50.618;7.024;2022-10-30T02:31:05;15.52;;;5.80;;
27163;SDS011;14685;50.618;7.024;2022-10-30T02:33:32;14.63;;;6.32;;
27163;SDS011;14685;50.618;7.024;2022-10-30T02:36:00;11.07;;;5.65;;
27163;SDS011;14685;50.618;7.024;2022-10-30T02:38:27;15.05;;;6.07;;
27163;SDS011;14685;50.618;7.024;2022-10-30T02:40:55;15.48;;;5.60;;
27163;SDS011;14685;50.618;7.024;2022-10-30T02:43:24;12.30;;;5.82;;
27163;SDS011;14685;50.618;7.024;2022-10-30T02:45:53;12.93;;;6.13;;
27163;SDS011;14685;50.618;7.024;2022-10-30T02:48:20;13.63;;;5.68;;
27163;SDS011;14685;50.618;7.024;2022-10-30T02:50:47;9.93;;;5.82;;
27163;SDS011;14685;50.618;7.024;2022-10-30T02:53:15;16.90;;;5.70;;
27163;SDS011;14685;50.618;7.024;2022-10-30T02:55:42;13.80;;;6.43;;
27163;SDS011;14685;50.618;7.024;2022-10-30T02:58:08;11.20;;;5.80;;
27163;SDS011;14685;50.618;7.024;2022-10-30T03:00:36;11.70;;;5.22;;
27163;SDS011;14685;50.618;7.024;2022-10-30T03:03:03;16.42;;;5.97;;
27163;SDS011;14685;50.618;7.024;2022-10-30T03:05:30;10.02;;;5.38;;
27163;SDS011;14685;50.618;7.024;2022-10-30T03:07:57;13.20;;;7.05;;
27163;SDS011;14685;50.618;7.024;2022-10-30T03:10:25;13.05;;;6.15;;
27163;SDS011;14685;50.618;7.024;2022-10-30T03:12:52;11.25;;;5.93;;
27163;SDS011;14685;50.618;7.024;2022-10-30T03:15:20;11.48;;;5.30;;
27163;SDS011;14685;50.618;7.024;2022-10-30T03:17:47;16.23;;;5.63;;
27163;SDS011;14685;50.618;7.024;2022-10-30T03:20:17;12.48;;;5.95;;
27163;SDS011;14685;50.618;7.024;2022-10-30T03:22:44;11.82;;;6.03;;
27163;SDS011;14685;50.618;7.024;2022-10-30T03:25:11;12.63;;;6.03;;
27163;SDS011;14685;50.618;7.024;2022-10-30T03:27:39;13.77;;;6.07;;
27163;SDS011;14685;50.618;7.024;2022-10-30T03:30:06;14.60;;;5.75;;
27163;SDS011;14685;50.618;7.024;2022-10-30T03:32:33;11.23;;;5.68;;
27163;SDS011;14685;50.618;7.024;2022-10-30T03:35:00;13.38;;;6.45;;
27163;SDS011;14685;50.618;7.024;2022-10-30T03:37:27;16.70;;;5.95;;
27163;SDS011;14685;50.618;7.024;2022-10-30T03:39:54;20.50;;;6.63;;
27163;SDS011;14685;50.618;7.024;2022-10-30T03:42:23;14.00;;;6.40;;
27163;SDS011;14685;50.618;7.024;2022-10-30T03:44:51;12.32;;;5.60;;
27163;SDS011;14685;50.618;7.024;2022-10-30T03:47:18;13.55;;;5.95;;
27163;SDS011;14685;50.618;7.024;2022-10-30T03:49:45;14.55;;;5.85;;
27163;SDS011;14685;50.618;7.024;2022-10-30T03:52:12;12.25;;;5.72;;
27163;SDS011;14685;50.618;7.024;2022-10-30T03:54:40;13.52;;;5.60;;
27163;SDS011;14685;50.618;7.024;2022-10-30T03:57:07;14.85;;;5.75;;
27163;SDS011;14685;50.618;7.024;2022-10-30T03:59:34;17.35;;;6.10;;
27163;SDS011;14685;50.618;7.024;2022-10-30T04:02:00;12.65;;;5.40;;
27163;SDS011;14685;50.618;7.024;2022-10-30T04:04:27;13.95;;;5.78;;
27163;SDS011;14685;50.618;7.024;2022-10-30T04:06:57;13.15;;;5.45;;
27163;SDS011;14685;50.618;7.024;2022-10-30T04:09:24;15.30;;;5.72;;
27163;SDS011;14685;50.618;7.024;2022-10-30T04:11:50;9.63;;;5.32;;
27163;SDS011;14685;50.618;7.024;2022-10-30T04:14:17;15.43;;;6.05;;
27163;SDS011;14685;50.618;7.024;2022-10-30T04:16:44;18.83;;;6.53;;
27163;SDS011;14685;50.618;7.024;2022-10-30T04:19:11;13.88;;;5.85;;
27163;SDS011;14685;50.618;7.024;2022-10-30T04:21:39;17.08;;;6.45;;
27163;SDS011;14685;50.618;7.024;2022-10-30T04:24:08;11.60;;;5.55;;
27163;SDS011;14685;50.618;7.024;2022-10-30T04:26:35;11.70;;;6.05;;
27163;SDS011;14685;50.618;7.024;2022-10-30T04:29:02;12.77;;;5.32;;
27163;SDS011;14685;50.618;7.024;2022-10-30T04:31:29;17.70;;;6.38;;
27163;SDS011;14685;50.618;7.024;2022-10-30T04:33:55;14.00;;;6.32;;
27163;SDS011;14685;50.618;7.024;2022-10-30T04:36:22;16.00;;;5.97;;
27163;SDS011;14685;50.618;7.024;2022-10-30T04:38:55;11.88;;;5.18;;
27163;SDS011;14685;50.618;7.024;2022-10-30T04:41:22;12.73;;;6.03;;
27163;SDS011;14685;50.618;7.024;2022-10-30T04:43:49;16.60;;;6.25;;
27163;SDS011;14685;50.618;7.024;2022-10-30T04:46:16;12.05;;;5.72;;
27163;SDS011;14685;50.618;7.024;2022-10-30T04:48:43;19.48;;;6.22;;
27163;SDS011;14685;50.618;7.024;2022-10-30T04:51:10;11.95;;;6.25;;
27163;SDS011;14685;50.618;7.024;2022-10-30T04:53:40;18.15;;;5.75;;
27163;SDS011;14685;50.618;7.024;2022-10-30T04:56:07;11.43;;;6.00;;
27163;SDS011;14685;50.618;7.024;2022-10-30T04:58:34;15.30;;;6.28;;
27163;SDS011;14685;50.618;7.024;2022-10-30T05:01:01;15.93;;;6.13;;
27163;SDS011;14685;50.618;7.024;2022-10-30T05:03:29;16.35;;;6.00;;
27163;SDS011;14685;50.618;7.024;2022-10-30T05:06:03;16.00;;;6.10;;
27163;SDS011;14685;50.618;7.024;2022-10-30T05:08:32;11.73;;;5.82;;
27163;SDS011;14685;50.618;7.024;2022-10-30T05:10:59;12.43;;;6.35;;
27163;SDS011;14685;50.618;7.024;2022-10-30T05:13:30;15.07;;;6.20;;
27163;SDS011;14685;50.618;7.024;2022-10-30T05:15:57;17.45;;;6.35;;
27163;SDS011;14685;50.618;7.024;2022-10-30T05:18:24;19.63;;;6.13;;
27163;SDS011;14685;50.618;7.024;2022-10-30T05:20:52;15.65;;;5.63;;
27163;SDS011;14685;50.618;7.024;2022-10-30T05:23:19;14.63;;;5.82;;
27163;SDS011;14685;50.618;7.024;2022-10-30T05:25:47;14.50;;;6.28;;
27163;SDS011;14685;50.618;7.024;2022-10-30T05:28:15;13.63;;;6.30;;
27163;SDS011;14685;50.618;7.024;2022-10-30T05:30:43;16.40;;;5.95;;
27163;SDS011;14685;50.618;7.024;2022-10-30T05:33:11;13.50;;;6.35;;
27163;SDS011;14685;50.618;7.024;2022-10-30T05:35:42;14.27;;;6.25;;
27163;SDS011;14685;50.618;7.024;2022-10-30T05:38:09;20.40;;;6.50;;
27163;SDS011;14685;50.618;7.024;2022-10-30T05:40:36;13.13;;;5.82;;
27163;SDS011;14685;50.618;7.024;2022-10-30T05:43:04;11.05;;;5.63;;
27163;SDS011;14685;50.618;7.024;2022-10-30T05:45:31;16.17;;;6.70;;
27163;SDS011;14685;50.618;7.024;2022-10-30T05:47:59;14.30;;;6.95;;
27163;SDS011;14685;50.618;7.024;2022-10-30T05:50:31;14.43;;;6.10;;
27163;SDS011;14685;50.618;7.024;2022-10-30T05:53:00;10.75;;;5.93;;
27163;SDS011;14685;50.618;7.024;2022-10-30T05:55:29;13.15;;;6.60;;
27163;SDS011;14685;50.618;7.024;2022-10-30T05:57:56;15.77;;;6.78;;
27163;SDS011;14685;50.618;7.024;2022-10-30T06:00:29;15.27;;;6.78;;
27163;SDS011;14685;50.618;7.024;2022-10-30T06:02:59;14.32;;;6.82;;
27163;SDS011;14685;50.618;7.024;2022-10-30T06:05:35;14.45;;;6.15;;
27163;SDS011;14685;50.618;7.024;2022-10-30T06:08:03;17.85;;;7.07;;
27163;SDS011;14685;50.618;7.024;2022-10-30T06:10:34;12.43;;;6.18;;
27163;SDS011;14685;50.618;7.024;2022-10-30T06:13:02;11.68;;;6.43;;
27163;SDS011;14685;50.618;7.024;2022-10-30T06:15:31;17.83;;;7.03;;
27163;SDS011;14685;50.618;7.024;2022-10-30T06:17:58;13.75;;;6.63;;
27163;SDS011;14685;50.618;7.024;2022-10-30T06:20:32;17.02;;;7.35;;
27163;SDS011;14685;50.618;7.024;2022-10-30T06:23:00;18.08;;;7.40;;
27163;SDS011;14685;50.618;7.024;2022-10-30T06:25:31;14.40;;;7.00;;
27163;SDS011;14685;50.618;7.024;2022-10-30T06:28:06;13.95;;;6.32;;
27163;SDS011;14685;50.618;7.024;2022-10-30T06:30:35;18.08;;;6.45;;
27163;SDS011;14685;50.618;7.024;2022-10-30T06:33:03;15.35;;;6.93;;
27163;SDS011;14685;50.618;7.024;2022-10-30T06:35:30;12.73;;;6.78;;
27163;SDS011;14685;50.618;7.024;2022-10-30T06:37:58;17.65;;;6.22;;
27163;SDS011;14685;50.618;7.024;2022-10-30T06:40:28;15.52;;;6.93;;
27163;SDS011;14685;50.618;7.024;2022-10-30T06:43:03;13.80;;;6.40;;
27163;SDS011;14685;50.618;7.024;2022-10-30T06:45:30;13.65;;;6.60;;
27163;SDS011;14685;50.618;7.024;2022-10-30T06:47:58;15.90;;;7.38;;
27163;SDS011;14685;50.618;7.024;2022-10-30T06:50:28;14.70;;;7.05;;
27163;SDS011;14685;50.618;7.024;2022-10-30T06:52:54;16.58;;;7.13;;
27163;SDS011;14685;50.618;7.024;2022-10-30T06:55:21;16.50;;;6.43;;
27163;SDS011;14685;50.618;7.024;2022-10-30T06:57:52;12.05;;;6.25;;
27163;SDS011;14685;50.618;7.024;2022-10-30T07:00:19;17.15;;;6.53;;
27163;SDS011;14685;50.618;7.024;2022-10-30T07:02:56;14.95;;;6.03;;
27163;SDS011;14685;50.618;7.024;2022-10-30T07:05:25;15.07;;;6.35;;
27163;SDS011;14685;50.618;7.024;2022-10-30T07:07:54;20.00;;;6.88;;
27163;SDS011;14685;50.618;7.024;2022-10-30T07:10:24;11.88;;;6.15;;
27163;SDS011;14685;50.618;7.024;2022-10-30T07:12:54;13.85;;;6.43;;
27163;SDS011;14685;50.618;7.024;2022-10-30T07:15:22;16.50;;;6.65;;
27163;SDS011;14685;50.618;7.024;2022-10-30T07:17:51;17.73;;;7.25;;
27163;SDS011;14685;50.618;7.024;2022-10-30T07:20:31;17.27;;;7.18;;
27163;SDS011;14685;50.618;7.024;2022-10-30T07:23:00;14.73;;;6.97;;
27163;SDS011;14685;50.618;7.024;2022-10-30T07:25:27;13.10;;;6.15;;
27163;SDS011;14685;50.618;7.024;2022-10-30T07:27:55;20.08;;;6.60;;
27163;SDS011;14685;50.618;7.024;2022-10-30T07:30:25;14.20;;;6.28;;
27163;SDS011;14685;50.618;7.024;2022-10-30T07:33:00;14.10;;;6.25;;
27163;SDS011;14685;50.618;7.024;2022-10-30T07:35:31;15.60;;;6.38;;
27163;SDS011;14685;50.618;7.024;2022-10-30T07:38:06;19.35;;;6.10;;
27163;SDS011;14685;50.618;7.024;2022-10-30T07:40:36;13.52;;;6.13;;
27163;SDS011;14685;50.618;7.024;2022-10-30T07:43:03;13.30;;;6.00;;
27163;SDS011;14685;50.618;7.024;2022-10-30T07:45:31;20.92;;;6.50;;
27163;SDS011;14685;50.618;7.024;2022-10-30T07:47:58;14.00;;;6.45;;
27163;SDS011;14685;50.618;7.024;2022-10-30T07:50:26;14.10;;;6.80;;
27163;SDS011;14685;50.618;7.024;2022-10-30T07:52:53;16.95;;;6.40;;
27163;SDS011;14685;50.618;7.024;2022-10-30T07:55:19;12.48;;;6.60;;
27163;SDS011;14685;50.618;7.024;2022-10-30T07:57:46;13.30;;;6.63;;
27163;SDS011;14685;50.618;7.024;2022-10-30T08:00:13;10.63;;;6.05;;
27163;SDS011;14685;50.618;7.024;2022-10-30T08:02:42;15.13;;;6.43;;
27163;SDS011;14685;50.618;7.024;2022-10-30T08:05:14;14.18;;;7.22;;
27163;SDS011;14685;50.618;7.024;2022-10-30T08:07:40;20.85;;;6.75;;
27163;SDS011;14685;50.618;7.024;2022-10-30T08:10:07;15.55;;;6.25;;
27163;SDS011;14685;50.618;7.024;2022-10-30T08:12:35;14.45;;;6.20;;
27163;SDS011;14685;50.618;7.024;2022-10-30T08:15:03;13.45;;;6.72;;
27163;SDS011;14685;50.618;7.024;2022-10-30T08:17:30;14.63;;;6.18;;
27163;SDS011;14685;50.618;7.024;2022-10-30T08:19:57;13.20;;;7.00;;
27163;SDS011;14685;50.618;7.024;2022-10-30T08:22:25;14.88;;;6.45;;
27163;SDS011;14685;50.618;7.024;2022-10-30T08:24:52;14.60;;;6.68;;
27163;SDS011;14685;50.618;7.024;2022-10-30T08:27:19;15.07;;;6.70;;
27163;SDS011;14685;50.618;7.024;2022-10-30T08:29:45;16.45;;;6.20;;
27163;SDS011;14685;50.618;7.024;2022-10-30T08:32:16;16.33;;;6.55;;
27163;SDS011;14685;50.618;7.024;2022-10-30T08:34:42;12.13;;;6.20;;
27163;SDS011;14685;50.618;7.024;2022-10-30T08:37:10;13.68;;;6.15;;
27163;SDS011;14685;50.618;7.024;2022-10-30T08:39:37;15.50;;;6.47;;
27163;SDS011;14685;50.618;7.024;2022-10-30T08:42:04;19.63;;;6.78;;
27163;SDS011;14685;50.618;7.024;2022-10-30T08:44:31;15.00;;;5.93;;
27163;SDS011;14685;50.618;7.024;2022-10-30T08:46:58;15.23;;;6.68;;
27163;SDS011;14685;50.618;7.024;2022-10-30T08:49:25;15.18;;;5.82;;
27163;SDS011;14685;50.618;7.024;2022-10-30T08:51:53;13.00;;;6.15;;
27163;SDS011;14685;50.618;7.024;2022-10-30T08:54:20;11.07;;;5.90;;
27163;SDS011;14685;50.618;7.024;2022-10-30T08:56:47;16.45;;;5.80;;
27163;SDS011;14685;50.618;7.024;2022-10-30T08:59:16;9.52;;;5.30;;
27163;SDS011;14685;50.618;7.024;2022-10-30T09:01:46;11.02;;;5.80;;
27163;SDS011;14685;50.618;7.024;2022-10-30T09:04:16;16.45;;;5.90;;
27163;SDS011;14685;50.618;7.024;2022-10-30T09:06:43;12.90;;;5.82;;
27163;SDS011;14685;50.618;7.024;2022-10-30T09:09:10;13.18;;;6.03;;
27163;SDS011;14685;50.618;7.024;2022-10-30T09:11:37;14.95;;;5.55;;
27163;SDS011;14685;50.618;7.024;2022-10-30T09:14:05;12.38;;;5.50;;
27163;SDS011;14685;50.618;7.024;2022-10-30T09:16:32;14.68;;;6.07;;
27163;SDS011;14685;50.618;7.024;2022-10-30T09:21:20;17.50;;;5.38;;
27163;SDS011;14685;50.618;7.024;2022-10-30T09:23:46;14.70;;;6.28;;
27163;SDS011;14685;50.618;7.024;2022-10-30T09:26:13;13.80;;;6.10;;
27163;SDS011;14685;50.618;7.024;2022-10-30T09:28:45;15.07;;;6.10;;
27163;SDS011;14685;50.618;7.024;2022-10-30T09:31:12;10.50;;;5.45;;
27163;SDS011;14685;50.618;7.024;2022-10-30T09:33:39;20.17;;;6.15;;
27163;SDS011;14685;50.618;7.024;2022-10-30T09:36:06;15.13;;;6.28;;
27163;SDS011;14685;50.618;7.024;2022-10-30T09:38:33;11.10;;;6.10;;
27163;SDS011;14685;50.618;7.024;2022-10-30T09:41:12;12.30;;;5.82;;
27163;SDS011;14685;50.618;7.024;2022-10-30T09:44:02;12.85;;;6.03;;
27163;SDS011;14685;50.618;7.024;2022-10-30T09:54:54;14.43;;;5.20;;
27163;SDS011;14685;50.618;7.024;2022-10-30T09:58:14;9.45;;;5.05;;
27163;SDS011;14685;50.618;7.024;2022-10-30T10:00:45;11.73;;;5.45;;
27163;SDS011;14685;50.618;7.024;2022-10-30T10:03:37;17.27;;;5.55;;
27163;SDS011;14685;50.618;7.024;2022-10-30T10:06:16;14.00;;;5.68;;
27163;SDS011;14685;50.618;7.024;2022-10-30T10:08:47;15.40;;;6.07;;
27163;SDS011;14685;50.618;7.024;2022-10-30T10:11:20;16.25;;;5.65;;
27163;SDS011;14685;50.618;7.024;2022-10-30T10:13:53;12.63;;;5.90;;
27163;SDS011;14685;50.618;7.024;2022-10-30T10:16:29;11.68;;;5.18;;
27163;SDS011;14685;50.618;7.024;2022-10-30T10:21:34;12.27;;;6.07;;
27163;SDS011;14685;50.618;7.024;2022-10-30T10:29:41;19.80;;;5.90;;
27163;SDS011;14685;50.618;7.024;2022-10-30T10:32:18;13.68;;;6.22;;
27163;SDS011;14685;50.618;7.024;2022-10-30T10:35:04;13.10;;;5.95;;
27163;SDS011;14685;50.618;7.024;2022-10-30T10:38:08;13.52;;;6.38;;
27163;SDS011;14685;50.618;7.024;2022-10-30T10:40:58;14.88;;;6.40;;
27163;SDS011;14685;50.618;7.024;2022-10-30T10:46:19;17.00;;;5.70;;
27163;SDS011;14685;50.618;7.024;2022-10-30T10:49:10;12.52;;;5.47;;
27163;SDS011;14685;50.618;7.024;2022-10-30T10:51:40;15.00;;;5.90;;
27163;SDS011;14685;50.618;7.024;2022-10-30T10:54:13;11.07;;;5.53;;
27163;SDS011;14685;50.618;7.024;2022-10-30T10:56:48;10.02;;;5.43;;
27163;SDS011;14685;50.618;7.024;2022-10-30T10:59:20;12.13;;;5.85;;
27163;SDS011;14685;50.618;7.024;2022-10-30T11:05:05;15.40;;;6.00;;
27163;SDS011;14685;50.618;7.024;2022-10-30T11:07:42;11.02;;;5.15;;
27163;SDS011;14685;50.618;7.024;2022-10-30T11:10:13;19.85;;;6.75;;
27163;SDS011;14685;50.618;7.024;2022-10-30T11:12:41;14.13;;;6.75;;
27163;SDS011;14685;50.618;7.024;2022-10-30T11:15:17;13.40;;;7.22;;
27163;SDS011;14685;50.618;7.024;2022-10-30T11:17:57;12.15;;;4.78;;
27163;SDS011;14685;50.618;7.024;2022-10-30T11:23:29;13.23;;;4.68;;
27163;SDS011;14685;50.618;7.024;2022-10-30T11:26:00;12.90;;;4.32;;
27163;SDS011;14685;50.618;7.024;2022-10-30T11:28:40;15.00;;;4.20;;
27163;SDS011;14685;50.618;7.024;2022-10-30T11:31:27;9.10;;;4.65;;
27163;SDS011;14685;50.618;7.024;2022-10-30T11:39:21;11.38;;;4.60;;
27163;SDS011;14685;50.618;7.024;2022-10-30T11:44:25;11.27;;;4.00;;
27163;SDS011;14685;50.618;7.024;2022-10-30T11:47:02;9.88;;;4.35;;
27163;SDS011;14685;50.618;7.024;2022-10-30T11:49:40;12.65;;;4.85;;
27163;SDS011;14685;50.618;7.024;2022-10-30T11:52:12;11.90;;;4.28;;
27163;SDS011;14685;50.618;7.024;2022-10-30T11:54:42;14.07;;;4.70;;
27163;SDS011;14685;50.618;7.024;2022-10-30T12:00:03;10.43;;;4.10;;
27163;SDS011;14685;50.618;7.024;2022-10-30T12:02:43;13.48;;;6.38;;
27163;SDS011;14685;50.618;7.024;2022-10-30T12:07:51;9.55;;;5.10;;
27163;SDS011;14685;50.618;7.024;2022-10-30T12:10:23;11.27;;;5.03;;
27163;SDS011;14685;50.618;7.024;2022-10-30T12:12:54;16.33;;;4.93;;
27163;SDS011;14685;50.618;7.024;2022-10-30T12:15:23;10.85;;;4.85;;
27163;SDS011;14685;50.618;7.024;2022-10-30T12:17:52;12.80;;;5.13;;
27163;SDS011;14685;50.618;7.024;2022-10-30T12:20:20;12.70;;;5.72;;
27163;SDS011;14685;50.618;7.024;2022-10-30T12:22:47;9.65;;;4.75;;
27163;SDS011;14685;50.618;7.024;2022-10-30T12:25:25;9.35;;;4.35;;
27163;SDS011;14685;50.618;7.024;2022-10-30T12:27:58;8.48;;;4.45;;
27163;SDS011;14685;50.618;7.024;2022-10-30T12:30:42;12.93;;;6.50;;
27163;SDS011;14685;50.618;7.024;2022-10-30T12:33:14;14.93;;;5.25;;
27163;SDS011;14685;50.618;7.024;2022-10-30T12:35:54;8.13;;;4.30;;
27163;SDS011;14685;50.618;7.024;2022-10-30T12:38:28;11.02;;;4.80;;
27163;SDS011;14685;50.618;7.024;2022-10-30T12:41:11;18.30;;;4.97;;
27163;SDS011;14685;50.618;7.024;2022-10-30T12:43:40;13.45;;;4.50;;
27163;SDS011;14685;50.618;7.024;2022-10-30T12:46:17;13.77;;;5.07;;
27163;SDS011;14685;50.618;7.024;2022-10-30T12:48:51;11.55;;;4.72;;
27163;SDS011;14685;50.618;7.024;2022-10-30T12:54:24;13.20;;;4.63;;
27163;SDS011;14685;50.618;7.024;2022-10-30T12:57:11;13.05;;;5.00;;
27163;SDS011;14685;50.618;7.024;2022-10-30T13:08:16;12.93;;;4.75;;
27163;SDS011;14685;50.618;7.024;2022-10-30T13:10:52;13.95;;;5.88;;
27163;SDS011;14685;50.618;7.024;2022-10-30T13:13:24;13.75;;;5.45;;
27163;SDS011;14685;50.618;7.024;2022-10-30T13:15:56;11.18;;;4.75;;
27163;SDS011;14685;50.618;7.024;2022-10-30T13:18:25;16.63;;;5.60;;
27163;SDS011;14685;50.618;7.024;2022-10-30T13:23:57;10.68;;;4.32;;
27163;SDS011;14685;50.618;7.024;2022-10-30T13:34:54;14.40;;;5.18;;
27163;SDS011;14685;50.618;7.024;2022-10-30T13:40:29;11.35;;;4.55;;
27163;SDS011;14685;50.618;7.024;2022-10-30T13:43:29;8.68;;;3.95;;
27163;SDS011;14685;50.618;7.024;2022-10-30T13:51:41;8.27;;;3.53;;
27163;SDS011;14685;50.618;7.024;2022-10-30T13:56:43;11.32;;;4.07;;
27163;SDS011;14685;50.618;7.024;2022-10-30T14:04:50;9.13;;;4.53;;
27163;SDS011;14685;50.618;7.024;2022-10-30T14:13:12;11.18;;;4.55;;
27163;SDS011;14685;50.618;7.024;2022-10-30T14:15:40;9.65;;;4.03;;
27163;SDS011;14685;50.618;7.024;2022-10-30T14:20:43;11.63;;;4.35;;
27163;SDS011;14685;50.618;7.024;2022-10-30T14:23:12;10.75;;;4.25;;
27163;SDS011;14685;50.618;7.024;2022-10-30T14:28:36;8.52;;;3.97;;
27163;SDS011;14685;50.618;7.024;2022-10-30T14:31:07;7.53;;;3.75;;
27163;SDS011;14685;50.618;7.024;2022-10-30T14:41:29;9.25;;;3.60;;
27163;SDS011;14685;50.618;7.024;2022-10-30T14:49:35;11.77;;;4.20;;
27163;SDS011;14685;50.618;7.024;2022-10-30T14:52:21;6.35;;;3.30;;
27163;SDS011;14685;50.618;7.024;2022-10-30T14:54:53;8.20;;;3.58;;
27163;SDS011;14685;50.618;7.024;2022-10-30T14:57:53;6.82;;;3.33;;
27163;SDS011;14685;50.618;7.024;2022-10-30T15:00:41;6.40;;;3.50;;
27163;SDS011;14685;50.618;7.024;2022-10-30T15:11:14;11.65;;;3.60;;
27163;SDS011;14685;50.618;7.024;2022-10-30T15:13:45;7.72;;;3.60;;
27163;SDS011;14685;50.618;7.024;2022-10-30T15:16:15;9.43;;;3.50;;
27163;SDS011;14685;50.618;7.024;2022-10-30T15:18:45;7.80;;;3.20;;
27163;SDS011;14685;50.618;7.024;2022-10-30T15:21:17;11.52;;;3.63;;
27163;SDS011;14685;50.618;7.024;2022-10-30T15:23:48;10.32;;;3.63;;
27163;SDS011;14685;50.618;7.024;2022-10-30T15:26:18;8.38;;;3.70;;
27163;SDS011;14685;50.618;7.024;2022-10-30T15:28:50;6.82;;;3.10;;
27163;SDS011;14685;50.618;7.024;2022-10-30T15:31:20;12.07;;;4.15;;
27163;SDS011;14685;50.618;7.024;2022-10-30T15:33:51;9.07;;;2.97;;
27163;SDS011;14685;50.618;7.024;2022-10-30T15:36:26;6.45;;;3.70;;
27163;SDS011;14685;50.618;7.024;2022-10-30T15:41:28;7.10;;;3.63;;
27163;SDS011;14685;50.618;7.024;2022-10-30T15:43:56;12.77;;;4.35;;
27163;SDS011;14685;50.618;7.024;2022-10-30T15:46:24;8.38;;;3.55;;
27163;SDS011;14685;50.618;7.024;2022-10-30T15:48:51;8.60;;;3.80;;
27163;SDS011;14685;50.618;7.024;2022-10-30T15:51:20;11.32;;;4.35;;
27163;SDS011;14685;50.618;7.024;2022-10-30T15:53:49;11.38;;;3.92;;
27163;SDS011;14685;50.618;7.024;2022-10-30T15:56:25;7.15;;;3.80;;
27163;SDS011;14685;50.618;7.024;2022-10-30T15:59:15;15.00;;;4.75;;
27163;SDS011;14685;50.618;7.024;2022-10-30T16:01:45;11.48;;;3.97;;
27163;SDS011;14685;50.618;7.024;2022-10-30T16:04:15;7.22;;;3.90;;
27163;SDS011;14685;50.618;7.024;2022-10-30T16:06:53;6.32;;;3.92;;
27163;SDS011;14685;50.618;7.024;2022-10-30T16:09:22;8.90;;;4.47;;
27163;SDS011;14685;50.618;7.024;2022-10-30T16:11:50;11.00;;;3.80;;
27163;SDS011;14685;50.618;7.024;2022-10-30T16:14:23;6.40;;;3.70;;
27163;SDS011;14685;50.618;7.024;2022-10-30T16:16:58;11.02;;;3.85;;
27163;SDS011;14685;50.618;7.024;2022-10-30T16:19:26;8.75;;;4.10;;
27163;SDS011;14685;50.618;7.024;2022-10-30T16:22:02;7.38;;;3.97;;
27163;SDS011;14685;50.618;7.024;2022-10-30T16:24:30;12.13;;;4.88;;
27163;SDS011;14685;50.618;7.024;2022-10-30T16:29:32;10.68;;;4.28;;
27163;SDS011;14685;50.618;7.024;2022-10-30T16:32:00;7.18;;;3.78;;
27163;SDS011;14685;50.618;7.024;2022-10-30T16:34:27;8.15;;;4.15;;
27163;SDS011;14685;50.618;7.024;2022-10-30T16:37:03;8.50;;;4.28;;
27163;SDS011;14685;50.618;7.024;2022-10-30T16:39:30;9.60;;;3.92;;
27163;SDS011;14685;50.618;7.024;2022-10-30T16:41:59;8.52;;;3.83;;
27163;SDS011;14685;50.618;7.024;2022-10-30T16:44:33;9.13;;;3.88;;
27163;SDS011;14685;50.618;7.024;2022-10-30T16:49:46;9.15;;;4.07;;
27163;SDS011;14685;50.618;7.024;2022-10-30T16:52:16;8.95;;;4.13;;
27163;SDS011;14685;50.618;7.024;2022-10-30T16:55:07;10.90;;;4.32;;
27163;SDS011;14685;50.618;7.024;2022-10-30T16:57:35;9.95;;;3.90;;
27163;SDS011;14685;50.618;7.024;2022-10-30T17:00:17;11.82;;;4.32;;
27163;SDS011;14685;50.618;7.024;2022-10-30T17:02:52;10.15;;;4.32;;
27163;SDS011;14685;50.618;7.024;2022-10-30T17:05:24;9.60;;;3.97;;
27163;SDS011;14685;50.618;7.024;2022-10-30T17:08:40;12.35;;;4.57;;
27163;SDS011;14685;50.618;7.024;2022-10-30T17:10:44;7.25;;;3.97;;
27163;SDS011;14685;50.618;7.024;2022-10-30T17:13:38;8.63;;;4.28;;
27163;SDS011;14685;50.618;7.024;2022-10-30T17:16:28;6.88;;;3.85;;